Aiea, Hawaii
Current Conditions -  °F | °C
As of 7:53 PM on Wednesday 17 Dec 2014 (Local Time) from PHNL Reporting Station
Few Clouds Few Clouds  
Wind Chill: 76°   Ceiling: Unl
Heat Index: 76°   Visibility: 10mi
Dew Point: 65°   Wind: 13mph
Humidity: 69%   Direction: 60°ENE
Pressure: 30.14"   Gusts: 22mph
Location:  21.38°N, 157.93°W
Report Text: PHNL 180553Z 06011G19KT 10SM FEW033 24/18 A3014 RMK AO2 SLP204 T02440183 10278 20244 53014
Loading
Personal Weather Stations






























Interactive Weather Map New forecast layout! Learn more

10-Day Weather Forecast

Advertisements
Track Severe Weather on mobile